createdAt,value
2023-11-21T00:01:23.199Z,5.83
2023-11-21T00:04:10.468Z,5.82
2023-11-21T00:06:56.561Z,5.78
2023-11-21T00:09:42.880Z,5.81
2023-11-21T00:12:30.504Z,5.81
2023-11-21T00:15:16.908Z,5.81
2023-11-21T00:18:02.336Z,5.82
2023-11-21T00:20:48.903Z,5.84
2023-11-21T00:23:34.359Z,5.86
2023-11-21T00:26:21.997Z,5.85
2023-11-21T00:29:18.593Z,5.85
2023-11-21T00:32:06.817Z,5.87
2023-11-21T00:34:52.362Z,5.87
2023-11-21T00:37:40.344Z,5.88
2023-11-21T00:40:25.934Z,5.88
2023-11-21T00:43:11.636Z,5.89
2023-11-21T00:45:58.508Z,5.91
2023-11-21T00:48:44.250Z,5.93
2023-11-21T00:51:29.836Z,5.95
2023-11-21T00:54:18.269Z,5.95
2023-11-21T00:57:04.570Z,5.96
2023-11-21T00:59:52.002Z,5.95
2023-11-21T01:02:38.181Z,5.95
2023-11-21T01:05:24.240Z,5.93
2023-11-21T01:08:09.765Z,5.92
2023-11-21T01:10:56.753Z,5.91
2023-11-21T01:13:43.716Z,5.89
2023-11-21T01:16:29.722Z,5.88
2023-11-21T01:19:16.291Z,5.87
2023-11-21T01:22:02.583Z,5.87
2023-11-21T01:24:48.800Z,5.87
2023-11-21T01:27:37.248Z,5.90
2023-11-21T01:30:23.124Z,5.90
2023-11-21T01:33:10.067Z,5.92
2023-11-21T01:35:56.039Z,5.90
2023-11-21T01:38:41.916Z,5.93
2023-11-21T01:41:29.636Z,5.40
2023-11-21T01:44:15.693Z,5.97
2023-11-21T01:47:05.982Z,5.95
2023-11-21T01:49:52.285Z,5.99
2023-11-21T01:52:38.294Z,6.00
2023-11-21T01:55:27.989Z,5.97
2023-11-21T01:58:15.018Z,5.96
2023-11-21T02:01:01.470Z,5.93
2023-11-21T02:03:48.590Z,5.97
2023-11-21T02:06:35.426Z,5.98
2023-11-21T02:09:26.949Z,5.98
2023-11-21T02:12:13.436Z,5.89
2023-11-21T02:14:59.432Z,5.94
2023-11-21T02:17:45.492Z,5.56
2023-11-21T02:20:31.228Z,5.92
2023-11-21T02:23:17.643Z,5.92
2023-11-21T02:26:05.577Z,5.92
2023-11-21T02:28:52.440Z,5.91
2023-11-21T02:31:46.816Z,5.90
2023-11-21T02:34:33.564Z,5.92
2023-11-21T02:37:19.166Z,5.95
2023-11-21T02:40:07.723Z,5.98
2023-11-21T02:42:53.956Z,5.98
2023-11-21T02:45:42.369Z,5.86
2023-11-21T02:48:27.922Z,6.00
2023-11-21T02:51:14.559Z,6.02
2023-11-21T02:54:00.127Z,6.05
2023-11-21T02:56:47.320Z,6.07
2023-11-21T02:59:32.767Z,6.08
2023-11-21T03:02:18.642Z,6.09
2023-11-21T03:05:06.159Z,6.06
2023-11-21T03:07:51.933Z,6.03
2023-11-21T03:10:39.350Z,6.01
2023-11-21T03:13:25.065Z,5.98
2023-11-21T03:16:12.174Z,5.97
2023-11-21T03:18:58.076Z,5.97
2023-11-21T03:21:43.896Z,5.98
2023-11-21T03:24:30.353Z,5.96
2023-11-21T03:27:15.915Z,5.93
2023-11-21T03:30:05.262Z,5.90
2023-11-21T03:32:50.996Z,5.83
2023-11-21T03:35:37.902Z,5.88
2023-11-21T03:38:23.797Z,5.89
2023-11-21T03:41:33.204Z,5.82
2023-11-21T03:44:19.296Z,5.88
2023-11-21T03:47:05.240Z,5.86
2023-11-21T03:49:51.442Z,5.88
2023-11-21T03:52:37.444Z,5.90
2023-11-21T03:55:24.492Z,5.92
2023-11-21T03:58:09.997Z,5.92
2023-11-21T04:00:56.243Z,5.94
2023-11-21T04:03:42.228Z,5.97
2023-11-21T04:06:28.171Z,5.89
2023-11-21T04:09:14.552Z,5.97
2023-11-21T04:12:01.506Z,5.97
2023-11-21T04:14:47.212Z,5.94
2023-11-21T04:17:33.290Z,5.93
2023-11-21T04:20:19.308Z,5.94
2023-11-21T04:23:05.130Z,5.92
2023-11-21T04:26:10.921Z,5.90
2023-11-21T04:28:57.407Z,5.89
2023-11-21T04:31:43.382Z,5.86
2023-11-21T04:34:28.810Z,5.83
2023-11-21T04:37:14.690Z,5.82
2023-11-21T04:40:00.531Z,5.82
2023-11-21T04:42:47.648Z,5.83
2023-11-21T04:45:33.773Z,5.77
2023-11-21T04:48:19.793Z,5.87
2023-11-21T04:51:06.658Z,5.86
2023-11-21T04:53:53.257Z,5.85
2023-11-21T04:56:39.211Z,5.84
2023-11-21T04:59:26.314Z,5.85
2023-11-21T05:02:27.740Z,5.79
2023-11-21T05:05:19.408Z,5.89
2023-11-21T05:08:05.794Z,5.91
2023-11-21T05:10:53.365Z,5.92
2023-11-21T05:13:40.304Z,5.92
2023-11-21T05:16:29.160Z,5.91
2023-11-21T05:19:15.184Z,5.91
2023-11-21T05:22:01.995Z,5.93
2023-11-21T05:24:47.597Z,5.95
2023-11-21T05:27:33.543Z,5.99
2023-11-21T05:30:19.462Z,5.99
2023-11-21T05:33:05.045Z,5.98
2023-11-21T05:35:51.269Z,5.98
2023-11-21T05:38:37.742Z,5.98
2023-11-21T05:41:23.161Z,5.99
2023-11-21T05:44:08.923Z,5.92
2023-11-21T05:46:55.192Z,5.98
2023-11-21T05:49:41.342Z,5.98
2023-11-21T05:52:27.041Z,5.88
2023-11-21T05:55:13.120Z,5.97
2023-11-21T05:57:58.863Z,5.97
2023-11-21T06:00:44.960Z,5.97
2023-11-21T06:03:50.358Z,5.95
2023-11-21T06:06:37.122Z,5.97
2023-11-21T06:09:42.798Z,5.98
2023-11-21T06:12:30.258Z,6.00
2023-11-21T06:15:36.637Z,5.14
2023-11-21T06:18:42.157Z,6.02
2023-11-21T06:21:47.780Z,6.01
2023-11-21T06:24:53.622Z,6.02
2023-11-21T06:28:10.009Z,6.03
2023-11-21T06:30:56.126Z,6.04
2023-11-21T06:33:42.577Z,6.06
2023-11-21T06:36:44.925Z,6.08
2023-11-21T06:39:31.408Z,6.09
2023-11-21T06:42:17.417Z,6.07
2023-11-21T06:45:07.289Z,6.09
2023-11-21T06:48:13.303Z,6.10
2023-11-21T06:51:19.123Z,6.10
2023-11-21T06:54:24.851Z,6.16
2023-11-21T06:57:10.644Z,6.18
2023-11-21T06:59:58.752Z,6.22
2023-11-21T07:02:45.058Z,6.24
2023-11-21T07:05:30.880Z,6.25
2023-11-21T07:08:16.897Z,6.19
2023-11-21T07:11:04.461Z,6.22
2023-11-21T07:13:49.962Z,6.22
2023-11-21T07:16:39.156Z,6.22
2023-11-21T07:19:24.756Z,6.23
2023-11-21T07:22:10.612Z,6.25
2023-11-21T07:24:57.738Z,6.25
2023-11-21T07:27:44.621Z,6.25
2023-11-21T07:30:30.306Z,6.24
2023-11-21T07:33:36.378Z,6.23
2023-11-21T07:36:38.922Z,6.25
2023-11-21T07:39:45.056Z,6.27
2023-11-21T07:42:50.306Z,6.26
2023-11-21T07:45:55.729Z,6.26
2023-11-21T07:49:05.793Z,6.28
2023-11-21T07:52:11.846Z,6.31
2023-11-21T07:55:17.364Z,6.34
2023-11-21T07:58:05.145Z,6.37
2023-11-21T08:00:51.514Z,6.08
2023-11-21T08:03:37.447Z,6.45
2023-11-21T08:06:43.193Z,6.46
2023-11-21T08:09:49.567Z,6.47
2023-11-21T08:12:43.043Z,6.47
2023-11-21T08:15:49.223Z,6.40
2023-11-21T08:18:55.043Z,6.53
2023-11-21T08:22:00.726Z,6.55
2023-11-21T08:25:07.370Z,6.55
2023-11-21T08:28:13.750Z,6.54
2023-11-21T08:31:19.785Z,6.54
2023-11-21T08:34:27.156Z,6.59
2023-11-21T08:37:36.124Z,6.62
2023-11-21T08:40:42.687Z,6.65
2023-11-21T08:43:48.033Z,6.65
2023-11-21T08:46:54.553Z,6.65
2023-11-21T08:49:59.970Z,6.66
2023-11-21T08:53:06.360Z,6.67
2023-11-21T08:56:11.672Z,6.69
2023-11-21T08:59:17.570Z,6.72
2023-11-21T09:02:23.439Z,6.74
2023-11-21T09:05:30.578Z,6.78
2023-11-21T09:08:37.246Z,6.80
2023-11-21T09:11:42.971Z,6.77
2023-11-21T09:14:48.822Z,6.81
2023-11-21T09:17:55.655Z,6.83
2023-11-21T09:21:01.214Z,6.86
2023-11-21T09:24:07.093Z,6.90
2023-11-21T09:27:12.504Z,6.91
2023-11-21T09:30:18.193Z,6.78
2023-11-21T09:33:24.855Z,6.95
2023-11-21T09:36:33.918Z,6.96
2023-11-21T09:39:39.782Z,6.97
2023-11-21T09:42:57.678Z,7.01
2023-11-21T09:46:09.191Z,7.03
2023-11-21T09:49:15.837Z,6.08
2023-11-21T09:52:22.617Z,7.08
2023-11-21T09:55:28.981Z,7.10
2023-11-21T09:58:36.085Z,7.13
2023-11-21T10:01:43.477Z,6.71
2023-11-21T10:04:49.445Z,7.16
2023-11-21T10:07:56.158Z,7.18
2023-11-21T10:11:11.417Z,7.18
2023-11-21T10:14:23.334Z,7.26
2023-11-21T10:17:35.567Z,7.30
2023-11-21T10:20:41.777Z,7.30
2023-11-21T10:23:49.090Z,7.26
2023-11-21T10:26:55.628Z,7.19
2023-11-21T10:30:01.463Z,6.97
2023-11-21T10:33:08.058Z,7.35
2023-11-21T10:36:13.820Z,7.36
2023-11-21T10:39:21.404Z,7.40
2023-11-21T10:42:29.564Z,7.21
2023-11-21T10:45:35.146Z,7.45
2023-11-21T10:48:41.508Z,7.13
2023-11-21T10:51:47.422Z,7.53
2023-11-21T10:54:53.145Z,7.55
2023-11-21T10:57:59.290Z,7.47
2023-11-21T11:01:05.878Z,7.58
2023-11-21T11:04:14.049Z,7.52
2023-11-21T11:07:23.621Z,7.60
2023-11-21T11:10:30.801Z,7.58
2023-11-21T11:13:36.429Z,7.67
2023-11-21T11:16:42.937Z,7.70
2023-11-21T11:19:49.521Z,7.71
2023-11-21T11:23:18.209Z,7.74
2023-11-21T11:26:41.871Z,7.75
2023-11-21T11:30:05.786Z,7.76
2023-11-21T11:33:29.529Z,7.78
2023-11-21T11:36:57.969Z,7.78
2023-11-21T11:40:07.040Z,7.77
2023-11-21T11:43:22.223Z,7.74
2023-11-21T11:46:27.785Z,7.80
2023-11-21T11:49:50.120Z,7.78
2023-11-21T11:53:03.540Z,7.78
2023-11-21T11:56:39.101Z,7.80
2023-11-21T11:59:44.773Z,7.78
2023-11-21T12:02:50.969Z,7.84
2023-11-21T12:05:57.428Z,7.89
2023-11-21T12:09:04.432Z,7.94
2023-11-21T12:12:10.701Z,7.93
2023-11-21T12:14:56.464Z,7.96
2023-11-21T12:17:44.642Z,7.99
2023-11-21T12:20:32.185Z,8.00
2023-11-21T12:23:18.208Z,8.02
2023-11-21T12:26:04.629Z,8.02
2023-11-21T12:28:56.892Z,8.02
2023-11-21T12:31:43.630Z,8.02
2023-11-21T12:34:29.459Z,8.00
2023-11-21T12:37:15.097Z,8.01
2023-11-21T12:40:00.694Z,8.00
2023-11-21T12:42:49.506Z,8.03
2023-11-21T12:45:35.224Z,8.05
2023-11-21T12:48:25.638Z,8.07
2023-11-21T12:54:27.492Z,8.10
2023-11-21T12:57:33.235Z,8.05
2023-11-21T13:00:49.680Z,8.04
2023-11-21T13:03:55.678Z,8.05
2023-11-21T13:07:01.286Z,8.08
2023-11-21T13:10:06.586Z,8.11
2023-11-21T13:13:14.077Z,8.17
2023-11-21T13:16:27.004Z,8.19
2023-11-21T13:19:34.149Z,8.09
2023-11-21T13:22:39.888Z,8.22
2023-11-21T13:25:50.929Z,7.88
2023-11-21T13:29:00.566Z,8.30
2023-11-21T13:32:06.300Z,8.32
2023-11-21T13:35:11.839Z,8.34
2023-11-21T13:38:18.828Z,8.12
2023-11-21T13:41:24.522Z,8.37
2023-11-21T13:44:17.719Z,8.40
2023-11-21T13:47:24.946Z,8.41
2023-11-21T13:50:30.628Z,8.41
2023-11-21T13:53:45.035Z,8.40
2023-11-21T13:56:50.797Z,8.37
2023-11-21T13:59:56.466Z,8.34
2023-11-21T14:03:02.360Z,8.27
2023-11-21T14:05:52.021Z,8.23
2023-11-21T14:08:37.982Z,8.16
2023-11-21T14:11:26.298Z,8.11
2023-11-21T14:14:13.968Z,8.05
2023-11-21T14:17:08.332Z,8.02
2023-11-21T14:19:56.659Z,8.02
2023-11-21T14:22:42.222Z,8.06
2023-11-21T14:25:28.081Z,8.09
2023-11-21T14:28:13.721Z,8.09
2023-11-21T14:31:19.478Z,8.10
2023-11-21T14:34:25.490Z,8.11
2023-11-21T14:37:31.265Z,8.12
2023-11-21T14:40:36.930Z,8.09
2023-11-21T14:43:43.337Z,8.12
2023-11-21T14:46:49.349Z,8.11
2023-11-21T14:49:55.251Z,8.10
2023-11-21T14:53:01.134Z,8.10
2023-11-21T14:55:53.131Z,8.09
2023-11-21T14:58:58.639Z,8.09
2023-11-21T15:01:44.614Z,8.08
2023-11-21T15:04:52.994Z,8.06
2023-11-21T15:08:00.724Z,8.12
2023-11-21T15:11:06.423Z,8.01
2023-11-21T15:14:12.293Z,8.04
2023-11-21T15:17:01.224Z,8.02
2023-11-21T15:19:46.912Z,8.02
2023-11-21T15:22:32.465Z,8.02
2023-11-21T15:25:18.403Z,8.01
2023-11-21T15:28:24.312Z,8.02
2023-11-21T15:31:30.511Z,8.05
2023-11-21T15:34:36.929Z,8.05
2023-11-21T15:37:43.017Z,7.03
2023-11-21T15:40:48.733Z,8.06
2023-11-21T15:43:54.536Z,8.04
2023-11-21T15:46:42.429Z,8.04
2023-11-21T15:49:50.862Z,8.02
2023-11-21T15:52:37.622Z,8.00
2023-11-21T15:56:02.069Z,7.97
2023-11-21T15:58:56.198Z,7.91
2023-11-21T16:01:44.916Z,7.95
2023-11-21T16:04:31.006Z,7.91
2023-11-21T16:07:17.357Z,7.90
2023-11-21T16:10:05.203Z,7.90
2023-11-21T16:12:50.870Z,7.88
2023-11-21T16:15:57.368Z,7.73
2023-11-21T16:19:03.327Z,7.50
2023-11-21T16:21:50.283Z,7.29
2023-11-21T16:24:56.141Z,7.09
2023-11-21T16:28:02.142Z,6.92
2023-11-21T16:31:08.033Z,6.79
2023-11-21T16:34:19.511Z,6.71
2023-11-21T16:37:10.327Z,6.60
2023-11-21T16:40:18.065Z,6.50
2023-11-21T16:43:23.784Z,6.39
2023-11-21T16:46:33.026Z,6.25
2023-11-21T16:49:35.201Z,6.23
2023-11-21T16:52:23.680Z,6.16
2023-11-21T16:55:29.532Z,6.04
2023-11-21T16:58:34.922Z,5.93
2023-11-21T17:01:21.603Z,5.77
2023-11-21T17:04:26.175Z,5.65
2023-11-21T17:07:12.946Z,5.45
2023-11-21T17:10:19.270Z,5.41
2023-11-21T17:13:25.237Z,5.27
2023-11-21T17:17:11.173Z,5.18
2023-11-21T17:20:56.960Z,5.13
2023-11-21T17:24:42.232Z,5.09
2023-11-21T17:28:28.035Z,5.00
2023-11-21T17:32:16.375Z,4.93
2023-11-21T17:36:02.615Z,4.86
2023-11-21T17:39:38.790Z,4.79
2023-11-21T17:42:44.627Z,4.73
2023-11-21T17:45:50.485Z,4.65
2023-11-21T17:48:56.467Z,4.58
2023-11-21T17:52:02.354Z,4.47
2023-11-21T17:55:08.131Z,4.47
2023-11-21T17:58:13.635Z,4.44
2023-11-21T18:01:19.250Z,4.42
2023-11-21T18:04:26.129Z,4.30
2023-11-21T18:07:31.954Z,4.39
2023-11-21T18:10:37.756Z,4.34
2023-11-21T18:13:43.301Z,4.28
2023-11-21T18:16:49.110Z,4.23
2023-11-21T18:19:55.246Z,4.22
2023-11-21T18:23:00.794Z,4.22
2023-11-21T18:26:06.730Z,4.25
2023-11-21T18:29:12.468Z,4.09
2023-11-21T18:32:18.687Z,4.18
2023-11-21T18:35:25.004Z,4.07
2023-11-21T18:38:30.926Z,3.87
2023-11-21T18:41:43.638Z,3.73
2023-11-21T18:44:57.038Z,3.58
2023-11-21T18:48:45.287Z,3.54
2023-11-21T18:52:31.060Z,3.56
2023-11-21T18:56:18.561Z,3.58
2023-11-21T19:00:05.514Z,3.57
2023-11-21T19:03:58.517Z,3.64
2023-11-21T19:07:47.995Z,3.64
2023-11-21T19:11:34.090Z,3.64
2023-11-21T19:15:22.804Z,3.66
2023-11-21T19:19:08.579Z,3.63
2023-11-21T19:22:54.565Z,3.56
2023-11-21T19:26:00.298Z,3.48
2023-11-21T19:29:06.699Z,3.18
2023-11-21T19:32:12.363Z,3.43
2023-11-21T19:35:18.027Z,3.13
2023-11-21T19:38:23.685Z,3.38
2023-11-21T19:41:42.131Z,3.42
2023-11-21T19:44:50.973Z,3.44
2023-11-21T19:47:57.294Z,2.84
2023-11-21T19:51:02.996Z,3.42
2023-11-21T19:54:09.643Z,3.32
2023-11-21T19:57:15.735Z,3.35
2023-11-21T20:00:21.604Z,3.34
2023-11-21T20:03:27.231Z,3.32
2023-11-21T20:06:36.910Z,3.29
2023-11-21T20:09:45.039Z,3.24
2023-11-21T20:12:55.847Z,3.22
2023-11-21T20:16:04.543Z,3.09
2023-11-21T20:19:10.484Z,3.18
2023-11-21T20:22:18.767Z,3.14
2023-11-21T20:25:05.952Z,3.10
2023-11-21T20:27:51.612Z,3.01
2023-11-21T20:30:58.411Z,2.93
2023-11-21T20:33:44.420Z,2.80
2023-11-21T20:36:50.455Z,2.78
2023-11-21T20:39:56.495Z,2.74
2023-11-21T20:43:05.140Z,2.66
2023-11-21T20:46:10.707Z,2.53
2023-11-21T20:49:16.512Z,2.42
2023-11-21T20:52:22.038Z,2.31
2023-11-21T20:55:28.123Z,2.41
2023-11-21T20:58:33.936Z,2.31
2023-11-21T21:01:39.812Z,2.33
2023-11-21T21:04:45.575Z,2.28
2023-11-21T21:07:31.998Z,2.22
2023-11-21T21:10:17.920Z,2.18
2023-11-21T21:13:03.827Z,2.06
2023-11-21T21:15:50.543Z,2.14
2023-11-21T21:18:36.297Z,2.13
2023-11-21T21:21:23.348Z,2.14
2023-11-21T21:24:29.258Z,2.13
2023-11-21T21:27:35.005Z,2.12
2023-11-21T21:30:41.338Z,2.16
2023-11-21T21:33:47.072Z,2.14
2023-11-21T21:36:52.644Z,2.10
2023-11-21T21:39:58.680Z,2.13
2023-11-21T21:43:05.405Z,2.17
2023-11-21T21:46:11.170Z,1.98
2023-11-21T21:49:16.693Z,1.97
2023-11-21T21:52:23.150Z,1.96
2023-11-21T21:55:35.830Z,1.63
2023-11-21T21:58:41.139Z,2.09
2023-11-21T22:01:47.478Z,2.11
2023-11-21T22:04:53.921Z,2.07
2023-11-21T22:08:01.160Z,1.95
2023-11-21T22:11:07.333Z,2.00
2023-11-21T22:14:13.274Z,2.04
2023-11-21T22:17:20.531Z,2.11
2023-11-21T22:20:27.253Z,1.28
2023-11-21T22:23:33.294Z,2.20
2023-11-21T22:26:39.280Z,2.26
2023-11-21T22:29:45.028Z,2.25
2023-11-21T22:32:51.407Z,2.18
2023-11-21T22:35:56.829Z,2.22
2023-11-21T22:39:04.146Z,2.19
2023-11-21T22:42:09.992Z,2.21
2023-11-21T22:45:15.955Z,2.19
2023-11-21T22:48:21.965Z,2.20
2023-11-21T22:51:27.771Z,2.20
2023-11-21T22:54:33.466Z,2.25
2023-11-21T22:57:39.180Z,2.26
2023-11-21T23:00:44.560Z,2.27
2023-11-21T23:03:50.510Z,2.25
2023-11-21T23:06:57.150Z,2.08
2023-11-21T23:10:03.032Z,2.09
2023-11-21T23:13:08.891Z,2.02
2023-11-21T23:16:15.020Z,2.12
2023-11-21T23:19:20.790Z,2.17
2023-11-21T23:22:27.115Z,2.25
2023-11-21T23:25:32.817Z,2.27
2023-11-21T23:28:41.599Z,2.25
2023-11-21T23:31:47.334Z,2.22
2023-11-21T23:34:53.016Z,2.17
2023-11-21T23:37:58.815Z,2.08
2023-11-21T23:41:04.385Z,2.08
2023-11-21T23:44:12.948Z,2.05
2023-11-21T23:47:00.423Z,1.99
2023-11-21T23:49:48.400Z,2.03
2023-11-21T23:52:35.256Z,1.99
2023-11-21T23:55:20.972Z,1.97
2023-11-21T23:58:26.643Z,1.86
